Time,TemperatureF,DewpointF,PressureIn,WindDirection,WindDirectionDegrees,WindSpeedMPH,WindSpeedGustMPH,Humidity,HourlyPrecipIn,Conditions,Clouds,dailyrainin,SoftwareType,DateUTC
2013-08-20 00:06:00,62.0,61.0,30.23,NE,43,0.0,0.0,96,0.00,,,0.00,weatherlink.com 1.10,2013-08-20 04:06:00,
2013-08-20 00:21:00,62.2,61.0,30.23,NE,43,0.0,0.0,96,0.00,,,0.00,weatherlink.com 1.10,2013-08-20 04:21:00,
2013-08-20 00:36:00,62.3,61.0,30.24,NE,43,0.0,0.0,96,0.01,,,0.01,weatherlink.com 1.10,2013-08-20 04:36:00,
2013-08-20 00:51:00,62.3,61.0,30.24,South,191,0.0,4.0,96,0.01,,,0.01,weatherlink.com 1.10,2013-08-20 04:51:00,
2013-08-20 01:06:00,62.3,61.0,30.23,South,185,0.0,3.0,96,0.01,,,0.01,weatherlink.com 1.10,2013-08-20 05:06:00,
2013-08-20 01:21:00,62.2,61.0,30.23,South,185,0.0,2.0,96,0.01,,,0.01,weatherlink.com 1.10,2013-08-20 05:21:00,
2013-08-20 01:36:00,62.2,61.0,30.23,South,186,0.0,2.0,96,0.00,,,0.01,weatherlink.com 1.10,2013-08-20 05:36:00,
2013-08-20 01:52:00,62.1,61.0,30.22,South,186,0.0,3.0,96,0.00,,,0.01,weatherlink.com 1.10,2013-08-20 05:52:00,
2013-08-20 02:07:00,61.9,61.0,30.22,South,184,0.0,3.0,96,0.00,,,0.01,weatherlink.com 1.10,2013-08-20 06:07:00,
2013-08-20 02:22:00,61.9,61.0,30.21,South,184,0.0,3.0,96,0.00,,,0.01,weatherlink.com 1.10,2013-08-20 06:22:00,
2013-08-20 02:37:00,61.7,61.0,30.21,South,183,0.0,1.0,96,0.00,,,0.01,weatherlink.com 1.10,2013-08-20 06:37:00,
2013-08-20 02:52:00,61.6,61.0,30.21,South,179,0.0,3.0,96,0.00,,,0.01,weatherlink.com 1.10,2013-08-20 06:52:00,
2013-08-20 03:07:00,61.4,60.0,30.21,North,360,2.0,4.0,96,0.00,,,0.01,weatherlink.com 1.10,2013-08-20 07:07:00,
2013-08-20 03:22:00,61.3,60.0,30.21,NNE,13,3.0,3.0,96,0.00,,,0.01,weatherlink.com 1.10,2013-08-20 07:22:00,
2013-08-20 03:37:00,61.1,60.0,30.21,North,360,3.0,4.0,96,0.00,,,0.01,weatherlink.com 1.10,2013-08-20 07:37:00,
2013-08-20 03:52:00,60.8,60.0,30.20,North,355,2.0,5.0,96,0.00,,,0.01,weatherlink.com 1.10,2013-08-20 07:52:00,
2013-08-20 04:07:00,60.6,60.0,30.21,North,355,2.0,3.0,96,0.00,,,0.01,weatherlink.com 1.10,2013-08-20 08:07:00,
2013-08-20 04:22:00,60.5,59.0,30.21,North,355,1.0,3.0,96,0.00,,,0.01,weatherlink.com 1.10,2013-08-20 08:22:00,
2013-08-20 04:37:00,60.3,59.0,30.21,North,355,3.0,4.0,96,0.00,,,0.01,weatherlink.com 1.10,2013-08-20 08:37:00,
2013-08-20 04:52:00,59.5,58.0,30.21,NNW,342,0.0,5.0,96,0.00,,,0.01,weatherlink.com 1.10,2013-08-20 08:52:00,
2013-08-20 05:07:00,59.8,59.0,30.21,NNW,342,0.0,1.0,96,0.00,,,0.01,weatherlink.com 1.10,2013-08-20 09:07:00,
2013-08-20 05:22:00,59.9,59.0,30.21,NNW,342,0.0,0.0,96,0.00,,,0.01,weatherlink.com 1.10,2013-08-20 09:22:00,
2013-08-20 05:37:00,59.8,59.0,30.21,NNW,342,2.0,3.0,96,0.00,,,0.01,weatherlink.com 1.10,2013-08-20 09:37:00,
2013-08-20 05:52:00,59.9,59.0,30.21,NNW,342,0.0,2.0,96,0.00,,,0.01,weatherlink.com 1.10,2013-08-20 09:52:00,
2013-08-20 06:07:00,60.0,59.0,30.22,NNW,342,1.0,3.0,97,0.00,,,0.01,weatherlink.com 1.10,2013-08-20 10:07:00,
2013-08-20 06:22:00,59.9,59.0,30.22,NNW,342,2.0,2.0,97,0.00,,,0.01,weatherlink.com 1.10,2013-08-20 10:22:00,
2013-08-20 06:37:00,60.3,59.0,30.23,NNW,342,0.0,3.0,96,0.00,,,0.01,weatherlink.com 1.10,2013-08-20 10:37:00,
2013-08-20 06:52:00,60.3,59.0,30.23,NNW,342,0.0,1.0,96,0.00,,,0.01,weatherlink.com 1.10,2013-08-20 10:52:00,
2013-08-20 07:07:00,60.7,60.0,30.23,NNW,342,0.0,1.0,97,0.00,,,0.01,weatherlink.com 1.10,2013-08-20 11:07:00,
2013-08-20 07:22:00,59.8,59.0,30.24,NNW,342,2.0,3.0,96,0.00,,,0.01,weatherlink.com 1.10,2013-08-20 11:22:00,
2013-08-20 07:37:00,59.4,58.0,30.24,NNW,342,3.0,5.0,96,0.00,,,0.01,weatherlink.com 1.10,2013-08-20 11:37:00,
2013-08-20 07:52:00,60.0,59.0,30.24,NNW,342,1.0,3.0,97,0.00,,,0.01,weatherlink.com 1.10,2013-08-20 11:52:00,
2013-08-20 08:07:00,60.5,59.0,30.25,NNW,342,3.0,3.0,96,0.00,,,0.01,weatherlink.com 1.10,2013-08-20 12:07:00,
2013-08-20 08:22:00,61.4,61.0,30.25,NNW,342,2.0,3.0,97,0.00,,,0.01,weatherlink.com 1.10,2013-08-20 12:22:00,
2013-08-20 08:37:00,62.2,61.0,30.25,NNW,342,1.0,3.0,97,0.00,,,0.01,weatherlink.com 1.10,2013-08-20 12:37:00,
2013-08-20 08:52:00,63.3,63.0,30.25,SSW,207,1.0,3.0,97,0.00,,,0.01,weatherlink.com 1.10,2013-08-20 12:52:00,
2013-08-20 09:07:00,64.5,64.0,30.26,NE,44,2.0,4.0,97,0.00,,,0.01,weatherlink.com 1.10,2013-08-20 13:07:00,
2013-08-20 09:22:00,65.0,64.0,30.26,NE,34,0.0,5.0,96,0.00,,,0.01,weatherlink.com 1.10,2013-08-20 13:22:00,
2013-08-20 09:37:00,65.9,65.0,30.26,NNE,22,3.0,4.0,96,0.00,,,0.01,weatherlink.com 1.10,2013-08-20 13:37:00,
2013-08-20 09:52:00,67.3,66.0,30.27,NNE,12,2.0,4.0,94,0.00,,,0.01,weatherlink.com 1.10,2013-08-20 13:52:00,
2013-08-20 10:07:00,68.9,66.0,30.27,North,360,1.0,3.0,90,0.00,,,0.01,weatherlink.com 1.10,2013-08-20 14:07:00,
2013-08-20 10:22:00,69.5,67.0,30.28,SE,128,4.0,4.0,90,0.00,,,0.01,weatherlink.com 1.10,2013-08-20 14:22:00,
2013-08-20 10:37:00,69.7,66.0,30.28,ESE,119,0.0,3.0,89,0.00,,,0.01,weatherlink.com 1.10,2013-08-20 14:37:00,
2013-08-20 10:52:00,69.0,66.0,30.29,SW,220,0.0,6.0,91,0.00,,,0.01,weatherlink.com 1.10,2013-08-20 14:52:00,
2013-08-20 11:07:00,68.5,66.0,30.28,SSE,163,0.0,4.0,92,0.00,,,0.01,weatherlink.com 1.10,2013-08-20 15:07:00,
2013-08-20 11:22:00,68.6,66.0,30.29,SE,126,3.0,5.0,91,0.00,,,0.01,weatherlink.com 1.10,2013-08-20 15:22:00,
2013-08-20 11:37:00,68.5,66.0,30.29,South,170,3.0,7.0,91,0.00,,,0.01,weatherlink.com 1.10,2013-08-20 15:37:00,
2013-08-20 11:52:00,68.1,66.0,30.29,SSW,204,2.0,7.0,93,0.00,,,0.01,weatherlink.com 1.10,2013-08-20 15:52:00,
2013-08-20 12:08:00,68.5,66.0,30.29,SE,144,3.0,6.0,92,0.00,,,0.01,weatherlink.com 1.10,2013-08-20 16:08:00,
2013-08-20 12:23:00,69.7,67.0,30.29,SSE,150,3.0,7.0,91,0.00,,,0.01,weatherlink.com 1.10,2013-08-20 16:23:00,
2013-08-20 12:38:00,71.0,67.0,30.29,SSW,196,2.0,7.0,86,0.00,,,0.01,weatherlink.com 1.10,2013-08-20 16:38:00,
2013-08-20 12:53:00,71.6,67.0,30.28,SE,132,7.0,13.0,86,0.00,,,0.01,weatherlink.com 1.10,2013-08-20 16:53:00,
2013-08-20 13:08:00,71.3,67.0,30.29,South,184,6.0,7.0,85,0.00,,,0.01,weatherlink.com 1.10,2013-08-20 17:08:00,
2013-08-20 13:24:00,70.7,67.0,30.28,South,172,1.0,8.0,89,0.00,,,0.01,weatherlink.com 1.10,2013-08-20 17:24:00,
2013-08-20 13:39:00,70.4,67.0,30.28,SSE,150,3.0,10.0,89,0.00,,,0.01,weatherlink.com 1.10,2013-08-20 17:39:00,
2013-08-20 13:54:00,71.0,67.0,30.28,SE,137,5.0,9.0,87,0.00,,,0.01,weatherlink.com 1.10,2013-08-20 17:54:00,
2013-08-20 14:09:00,71.1,67.0,30.27,SSW,211,5.0,8.0,88,0.00,,,0.01,weatherlink.com 1.10,2013-08-20 18:09:00,
2013-08-20 14:24:00,69.9,66.0,30.27,East,88,5.0,6.0,88,0.00,,,0.01,weatherlink.com 1.10,2013-08-20 18:24:00,
2013-08-20 14:39:00,70.3,66.0,30.27,SE,136,3.0,9.0,87,0.00,,,0.01,weatherlink.com 1.10,2013-08-20 18:39:00,
2013-08-20 14:54:00,70.0,66.0,30.26,SSE,150,2.0,7.0,88,0.00,,,0.01,weatherlink.com 1.10,2013-08-20 18:54:00,
2013-08-20 15:09:00,70.0,67.0,30.26,South,174,6.0,7.0,90,0.00,,,0.01,weatherlink.com 1.10,2013-08-20 19:09:00,
2013-08-20 15:23:00,69.4,67.0,30.25,SSE,153,6.0,10.0,92,0.00,,,0.01,weatherlink.com 1.10,2013-08-20 19:23:00,
2013-08-20 15:39:00,69.2,67.0,30.25,South,182,0.0,8.0,92,0.00,,,0.01,weatherlink.com 1.10,2013-08-20 19:39:00,
2013-08-20 15:54:00,68.8,66.0,30.24,SSE,150,3.0,7.0,92,0.00,,,0.01,weatherlink.com 1.10,2013-08-20 19:54:00,
2013-08-20 16:09:00,68.6,66.0,30.24,ESE,108,2.0,5.0,92,0.00,,,0.01,weatherlink.com 1.10,2013-08-20 20:09:00,
2013-08-20 16:24:00,69.1,66.0,30.23,South,175,4.0,6.0,91,0.00,,,0.01,weatherlink.com 1.10,2013-08-20 20:24:00,
2013-08-20 16:38:00,70.1,67.0,30.23,SE,130,5.0,7.0,88,0.00,,,0.01,weatherlink.com 1.10,2013-08-20 20:38:00,
2013-08-20 16:53:00,70.4,67.0,30.22,SSE,150,3.0,6.0,89,0.00,,,0.01,weatherlink.com 1.10,2013-08-20 20:53:00,
2013-08-20 17:08:00,69.4,66.0,30.22,SW,216,2.0,5.0,90,0.00,,,0.01,weatherlink.com 1.10,2013-08-20 21:08:00,
2013-08-20 17:23:00,69.4,66.0,30.22,SSE,153,5.0,7.0,90,0.00,,,0.01,weatherlink.com 1.10,2013-08-20 21:23:00,
2013-08-20 17:38:00,69.0,67.0,30.23,South,169,1.0,6.0,92,0.00,,,0.01,weatherlink.com 1.10,2013-08-20 21:38:00,
2013-08-20 17:53:00,68.6,66.0,30.23,SSE,164,1.0,5.0,92,0.00,,,0.01,weatherlink.com 1.10,2013-08-20 21:53:00,
2013-08-20 18:08:00,68.0,66.0,30.23,South,171,0.0,6.0,93,0.00,,,0.01,weatherlink.com 1.10,2013-08-20 22:08:00,
2013-08-20 18:23:00,67.6,66.0,30.23,SSE,148,2.0,7.0,94,0.00,,,0.01,weatherlink.com 1.10,2013-08-20 22:23:00,
2013-08-20 18:38:00,67.2,66.0,30.23,SSE,165,0.0,6.0,94,0.00,,,0.01,weatherlink.com 1.10,2013-08-20 22:38:00,
2013-08-20 18:53:00,66.7,65.0,30.23,SSE,156,0.0,5.0,94,0.00,,,0.01,weatherlink.com 1.10,2013-08-20 22:53:00,
2013-08-20 19:08:00,66.5,65.0,30.24,SSE,157,2.0,3.0,94,0.00,,,0.01,weatherlink.com 1.10,2013-08-20 23:08:00,
2013-08-20 19:24:00,66.3,65.0,30.25,South,179,2.0,4.0,94,0.00,,,0.01,weatherlink.com 1.10,2013-08-20 23:24:00,
2013-08-20 19:39:00,66.0,64.0,30.25,ESE,108,2.0,7.0,94,0.00,,,0.01,weatherlink.com 1.10,2013-08-20 23:39:00,
2013-08-20 19:54:00,65.7,64.0,30.25,SE,144,1.0,6.0,94,0.00,,,0.01,weatherlink.com 1.10,2013-08-20 23:54:00,
2013-08-20 20:09:00,65.7,64.0,30.25,SSE,162,3.0,7.0,95,0.00,,,0.01,weatherlink.com 1.10,2013-08-21 00:09:00,
2013-08-20 20:24:00,65.7,64.0,30.25,South,185,6.0,7.0,95,0.00,,,0.01,weatherlink.com 1.10,2013-08-21 00:24:00,
2013-08-20 20:39:00,65.6,64.0,30.26,SSE,152,5.0,6.0,95,0.00,,,0.01,weatherlink.com 1.10,2013-08-21 00:39:00,
2013-08-20 20:54:00,65.5,64.0,30.26,SSW,205,4.0,7.0,95,0.00,,,0.01,weatherlink.com 1.10,2013-08-21 00:54:00,
2013-08-20 21:08:00,65.5,64.0,30.26,SSW,202,2.0,7.0,95,0.00,,,0.01,weatherlink.com 1.10,2013-08-21 01:08:00,
2013-08-20 21:23:00,65.5,64.0,30.27,South,170,1.0,5.0,95,0.00,,,0.01,weatherlink.com 1.10,2013-08-21 01:23:00,
2013-08-20 21:38:00,65.3,64.0,30.27,SSE,153,1.0,7.0,95,0.00,,,0.01,weatherlink.com 1.10,2013-08-21 01:38:00,
2013-08-20 21:53:00,65.3,64.0,30.27,SSE,152,2.0,4.0,95,0.00,,,0.01,weatherlink.com 1.10,2013-08-21 01:53:00,
2013-08-20 22:08:00,65.2,64.0,30.27,SSE,160,3.0,7.0,95,0.00,,,0.01,weatherlink.com 1.10,2013-08-21 02:08:00,
2013-08-20 22:23:00,65.2,64.0,30.28,South,188,2.0,6.0,95,0.00,,,0.01,weatherlink.com 1.10,2013-08-21 02:23:00,
2013-08-20 22:38:00,65.2,64.0,30.28,South,180,0.0,4.0,95,0.00,,,0.01,weatherlink.com 1.10,2013-08-21 02:38:00,
2013-08-20 22:53:00,65.1,64.0,30.28,South,174,1.0,5.0,95,0.00,,,0.01,weatherlink.com 1.10,2013-08-21 02:53:00,
2013-08-20 23:08:00,64.9,64.0,30.28,SE,144,0.0,8.0,95,0.00,,,0.01,weatherlink.com 1.10,2013-08-21 03:08:00,
2013-08-20 23:23:00,64.8,63.0,30.29,SSE,163,0.0,5.0,95,0.00,,,0.01,weatherlink.com 1.10,2013-08-21 03:23:00,
2013-08-20 23:38:00,64.7,63.0,30.29,South,184,2.0,6.0,95,0.00,,,0.01,weatherlink.com 1.10,2013-08-21 03:38:00,
2013-08-20 23:53:00,64.7,63.0,30.29,SSW,194,0.0,4.0,95,0.00,,,0.01,weatherlink.com 1.10,2013-08-21 03:53:00,